Time;durP1;ratioP1;P1;durP2;ratioP2;P2;SDS_P1;SDS_P2;PMS_P1;PMS_P2;Temp;Humidity;BMP_temperature;BMP_pressure;BME280_temperature;BME280_humidity;BME280_pressure;Samples;Min_cycle;Max_cycle;Signal;HPM_P1;HPM_P2
2023/03/05 00:01:29;;;;;;;58.05;36.53;;;8.30;99.90;;;;;;4924408;29;20062;-90
2023/03/05 00:03:56;;;;;;;61.83;36.75;;;8.30;99.90;;;;;;4916852;29;20449;-90
2023/03/05 00:06:28;;;;;;;50.65;32.92;;;8.30;99.90;;;;;;4924085;29;20031;-91
2023/03/05 00:08:57;;;;;;;53.88;34.40;;;8.30;99.90;;;;;;4921174;29;20062;-93
2023/03/05 00:11:28;;;;;;;51.05;33.75;;;8.40;99.90;;;;;;4936450;29;20027;-92
2023/03/05 00:13:56;;;;;;;47.65;31.90;;;8.30;99.90;;;;;;4924066;29;20035;-93
2023/03/05 00:16:25;;;;;;;51.97;33.92;;;8.40;99.90;;;;;;4924058;29;20066;-93
2023/03/05 00:18:54;;;;;;;53.67;34.63;;;8.40;99.90;;;;;;4923868;29;20027;-92
2023/03/05 00:21:30;;;;;;;45.65;30.27;;;8.40;99.90;;;;;;4924068;29;20031;-92
2023/03/05 00:24:02;;;;;;;57.22;36.17;;;8.40;99.90;;;;;;4923533;29;20051;-93
2023/03/05 00:26:30;;;;;;;54.50;34.40;;;8.40;99.90;;;;;;4924315;29;20079;-91
2023/03/05 00:28:57;;;;;;;50.10;33.17;;;8.40;99.90;;;;;;4923966;29;20507;-92
2023/03/05 00:31:30;;;;;;;59.35;37.80;;;8.40;99.90;;;;;;4924021;29;20031;-92
2023/03/05 00:34:04;;;;;;;54.10;35.17;;;8.50;99.90;;;;;;4917055;29;20046;-91
2023/03/05 00:36:31;;;;;;;;;;;8.40;99.90;;;;;;4924435;29;20028;-91
2023/03/05 00:38:58;;;;;;;62.20;38.38;;;8.40;99.90;;;;;;4955221;29;19961;-91
2023/03/05 00:41:25;;;;;;;65.57;40.30;;;8.30;99.90;;;;;;4923832;29;20104;-91
2023/03/05 00:43:52;;;;;;;61.25;38.28;;;8.40;99.90;;;;;;4923767;29;20123;-91
2023/03/05 00:46:18;;;;;;;53.72;35.47;;;8.40;99.90;;;;;;4923639;29;20042;-92
2023/03/05 00:48:45;;;;;;;55.63;35.80;;;8.40;99.90;;;;;;4923903;29;20426;-91
2023/03/05 00:51:12;;;;;;;63.20;37.17;;;8.40;99.90;;;;;;4923896;29;20097;-92
2023/03/05 00:53:38;;;;;;;64.97;37.65;;;8.40;99.90;;;;;;4923523;29;20082;-90
2023/03/05 00:56:05;;;;;;;64.82;39.30;;;8.40;99.90;;;;;;4923494;28;20127;-92
2023/03/05 00:58:35;;;;;;;57.72;35.97;;;8.40;99.90;;;;;;4923531;29;20034;-90
2023/03/05 01:01:03;;;;;;;60.80;36.63;;;8.40;99.90;;;;;;4923712;29;20035;-90
2023/03/05 01:03:32;;;;;;;57.47;33.05;;;8.50;99.90;;;;;;4934507;29;20031;-91
2023/03/05 01:06:00;;;;;;;53.15;34.10;;;8.60;99.90;;;;;;4930967;29;20027;-92
2023/03/05 01:08:27;;;;;;;57.13;34.40;;;8.60;99.90;;;;;;4932301;29;20090;-91
2023/03/05 01:10:54;;;;;;;53.25;33.80;;;8.50;99.90;;;;;;4939503;29;20027;-93
2023/03/05 01:13:21;;;;;;;58.75;35.45;;;8.50;99.90;;;;;;4928521;29;20011;-90
2023/03/05 01:15:49;;;;;;;59.35;36.00;;;8.50;99.90;;;;;;4936234;29;20054;-91
2023/03/05 01:18:17;;;;;;;56.40;34.83;;;8.50;99.90;;;;;;4923312;29;20154;-93
2023/03/05 01:20:44;;;;;;;60.63;35.33;;;8.50;99.90;;;;;;4923332;29;20031;-92
2023/03/05 01:23:11;;;;;;;49.03;31.95;;;8.50;99.90;;;;;;4923354;29;20114;-91
2023/03/05 01:25:41;;;;;;;54.28;34.90;;;8.50;99.90;;;;;;4923171;29;20505;-93
2023/03/05 01:28:08;;;;;;;68.43;39.85;;;8.50;99.90;;;;;;4923306;29;20028;-92
2023/03/05 01:30:35;;;;;;;52.53;32.28;;;8.40;99.90;;;;;;4923110;29;20019;-92
2023/03/05 01:33:02;;;;;;;51.15;31.50;;;8.40;99.90;;;;;;4923274;29;20392;-91
2023/03/05 01:35:32;;;;;;;53.13;32.80;;;8.40;99.90;;;;;;4923490;29;20567;-91
2023/03/05 01:37:59;;;;;;;51.90;32.33;;;8.40;99.90;;;;;;4919761;29;20031;-93
2023/03/05 01:40:29;;;;;;;56.60;33.22;;;8.40;99.90;;;;;;4919460;29;20024;-90
2023/03/05 01:43:10;;;;;;;51.67;31.15;;;8.40;99.90;;;;;;4922879;29;20413;-92
2023/03/05 01:45:38;;;;;;;52.03;32.17;;;8.40;99.90;;;;;;4922952;29;20033;-91
2023/03/05 01:48:05;;;;;;;50.83;29.58;;;8.30;99.90;;;;;;4922967;29;20036;-91
2023/03/05 01:50:32;;;;;;;52.67;31.80;;;8.30;99.90;;;;;;4922887;29;20430;-91
2023/03/05 01:53:05;;;;;;;47.03;29.77;;;8.30;99.90;;;;;;4923278;29;20520;-92
2023/03/05 01:55:36;;;;;;;55.70;32.50;;;8.30;99.90;;;;;;4923359;29;20043;-92
2023/03/05 01:58:07;;;;;;;52.17;31.60;;;8.30;99.90;;;;;;4920388;29;20027;-93
2023/03/05 02:00:43;;;;;;;50.72;30.58;;;8.30;99.90;;;;;;4922651;29;20042;-91
2023/03/05 02:03:16;;;;;;;50.10;28.30;;;8.20;99.90;;;;;;4922839;29;20031;-94
2023/03/05 02:05:43;;;;;;;47.67;29.38;;;8.30;99.90;;;;;;4922912;29;20481;-90
2023/03/05 02:08:15;;;;;;;47.38;29.05;;;8.30;99.90;;;;;;4923981;29;20035;-91
2023/03/05 02:10:51;;;;;;;48.65;28.65;;;8.30;99.90;;;;;;4926557;29;20102;-92
2023/03/05 02:13:22;;;;;;;41.40;26.38;;;8.30;99.90;;;;;;4926603;29;20074;-93
2023/03/05 02:15:50;;;;;;;45.72;27.65;;;8.20;99.90;;;;;;4926183;29;20039;-91
2023/03/05 02:18:17;;;;;;;48.20;27.98;;;8.10;99.90;;;;;;4926275;29;20019;-93
2023/03/05 02:20:44;;;;;;;49.17;27.92;;;8.00;99.90;;;;;;4926164;29;20031;-92
2023/03/05 02:23:11;;;;;;;50.67;27.33;;;8.00;99.90;;;;;;4942296;29;20024;-90
2023/03/05 02:25:37;;;;;;;46.22;29.00;;;8.00;99.90;;;;;;4925974;29;20190;-92
2023/03/05 02:28:22;;;;;;;46.20;26.55;;;7.90;99.90;;;;;;4926283;29;20118;-93
2023/03/05 02:30:49;;;;;;;47.17;27.80;;;7.90;99.90;;;;;;4926289;29;20039;-92
2023/03/05 02:33:17;;;;;;;42.88;25.33;;;7.80;99.90;;;;;;4926273;29;20023;-91
2023/03/05 02:35:45;;;;;;;42.20;25.42;;;7.90;99.90;;;;;;4939802;29;20122;-91
2023/03/05 02:38:15;;;;;;;42.83;24.33;;;7.80;99.90;;;;;;4923974;29;20031;-91
2023/03/05 02:40:42;;;;;;;42.53;23.23;;;7.80;99.90;;;;;;4922806;29;20098;-90
2023/03/05 02:43:09;;;;;;;46.33;24.88;;;7.70;99.90;;;;;;4924198;29;20390;-91
2023/03/05 02:45:36;;;;;;;43.15;23.90;;;7.70;99.90;;;;;;4942048;29;20477;-90
2023/03/05 02:48:03;;;;;;;50.15;24.73;;;7.70;99.90;;;;;;4942082;29;20028;-93
2023/03/05 02:50:32;;;;;;;46.40;24.70;;;7.70;99.90;;;;;;4941719;29;20037;-91
2023/03/05 02:52:59;;;;;;;36.95;21.50;;;7.60;99.90;;;;;;4941698;29;20027;-91
2023/03/05 02:55:25;;;;;;;43.00;25.30;;;7.60;99.90;;;;;;4926104;29;20039;-91
2023/03/05 02:57:55;;;;;;;48.05;25.02;;;7.60;99.90;;;;;;4941983;29;20030;-91
2023/03/05 03:00:22;;;;;;;42.22;24.05;;;7.50;99.90;;;;;;4941835;29;20038;-91
2023/03/05 03:02:49;;;;;;;44.92;23.40;;;7.40;99.90;;;;;;4942253;29;20038;-92
2023/03/05 03:05:16;;;;;;;35.97;20.92;;;7.40;99.90;;;;;;4942565;29;20042;-91
2023/03/05 03:07:43;;;;;;;39.10;21.85;;;7.50;99.90;;;;;;4943051;29;20061;-92
2023/03/05 03:10:10;;;;;;;38.85;21.10;;;7.50;99.90;;;;;;4942231;29;20038;-93
2023/03/05 03:12:39;;;;;;;35.83;19.88;;;7.60;99.90;;;;;;4941045;29;20023;-92
2023/03/05 03:15:08;;;;;;;41.30;22.15;;;7.60;99.90;;;;;;4956986;29;20062;-93
2023/03/05 03:17:35;;;;;;;35.03;20.42;;;7.60;99.90;;;;;;4941699;29;20028;-90
2023/03/05 03:20:08;;;;;;;43.63;21.30;;;7.60;99.90;;;;;;4956415;28;20035;-94
2023/03/05 03:22:35;;;;;;;33.20;18.48;;;7.60;99.90;;;;;;4956781;29;20485;-93
2023/03/05 03:25:04;;;;;;;37.70;20.35;;;7.60;99.90;;;;;;4940644;29;20595;-92
2023/03/05 03:27:30;;;;;;;33.75;18.90;;;7.60;99.90;;;;;;4956781;29;20027;-92
2023/03/05 03:30:01;;;;;;;33.13;18.63;;;7.60;99.90;;;;;;4956779;29;20032;-91
2023/03/05 03:32:28;;;;;;;36.65;18.83;;;7.60;99.90;;;;;;4956610;29;20027;-92
2023/03/05 03:34:55;;;;;;;30.58;18.52;;;7.50;99.90;;;;;;4940561;29;20118;-94
2023/03/05 03:37:21;;;;;;;34.13;18.10;;;7.40;99.90;;;;;;4940660;29;20027;-92
2023/03/05 03:39:48;;;;;;;33.28;17.17;;;7.40;99.90;;;;;;4956862;29;20055;-90
2023/03/05 03:42:19;;;;;;;30.55;17.63;;;7.30;99.90;;;;;;4956670;29;20038;-91
2023/03/05 03:44:47;;;;;;;29.45;16.95;;;7.30;99.90;;;;;;4956487;29;20027;-91
2023/03/05 03:47:13;;;;;;;32.67;18.95;;;7.30;99.90;;;;;;4961559;29;20091;-91
2023/03/05 03:49:40;;;;;;;27.15;17.33;;;7.30;99.90;;;;;;4968168;29;20065;-91
2023/03/05 03:52:13;;;;;;;34.80;17.48;;;7.30;99.90;;;;;;4940519;29;20111;-91
2023/03/05 03:54:45;;;;;;;34.13;15.40;;;7.30;99.90;;;;;;4940220;29;20050;-91
2023/03/05 03:57:12;;;;;;;30.02;15.50;;;7.30;99.90;;;;;;4956359;29;20051;-92
2023/03/05 03:59:39;;;;;;;31.67;14.18;;;7.30;99.90;;;;;;4940298;29;20027;-94
2023/03/05 04:02:06;;;;;;;25.00;13.40;;;7.30;99.90;;;;;;4956427;29;20095;-91
2023/03/05 04:04:32;;;;;;;22.55;12.82;;;7.30;99.90;;;;;;4940543;29;20504;-91
2023/03/05 04:06:59;;;;;;;20.85;12.50;;;7.30;99.90;;;;;;4940125;29;20035;-92
2023/03/05 04:09:26;;;;;;;27.55;13.40;;;7.30;99.90;;;;;;4940160;29;20027;-91
2023/03/05 04:11:52;;;;;;;23.23;12.40;;;7.30;99.90;;;;;;4940268;29;20023;-92
2023/03/05 04:14:19;;;;;;;27.98;14.15;;;7.30;99.90;;;;;;4940138;29;20039;-91
2023/03/05 04:16:45;;;;;;;25.88;12.20;;;7.30;99.90;;;;;;4939990;29;20114;-92
2023/03/05 04:19:11;;;;;;;21.13;12.27;;;7.20;99.90;;;;;;4940072;29;20027;-91
2023/03/05 04:21:38;;;;;;;20.20;11.85;;;7.20;99.90;;;;;;4945210;29;20538;-91
2023/03/05 04:24:07;;;;;;;20.70;11.55;;;7.20;99.90;;;;;;4950103;29;20087;-91
2023/03/05 04:26:34;;;;;;;27.10;12.00;;;7.20;99.90;;;;;;4950448;29;20027;-92
2023/03/05 04:29:00;;;;;;;25.10;12.68;;;7.20;99.90;;;;;;4941477;29;20035;-92
2023/03/05 04:31:27;;;;;;;21.75;12.05;;;7.10;99.90;;;;;;4939266;29;20028;-90
2023/03/05 04:33:53;;;;;;;23.02;12.23;;;7.10;99.90;;;;;;4955499;29;20128;-92
2023/03/05 04:36:20;;;;;;;19.13;11.05;;;7.00;99.90;;;;;;4925829;29;20036;-90
2023/03/05 04:38:47;;;;;;;26.70;12.20;;;7.00;99.90;;;;;;4920778;29;20031;-90
2023/03/05 04:41:13;;;;;;;21.58;10.40;;;7.00;99.90;;;;;;4920575;29;20090;-90
2023/03/05 04:43:40;;;;;;;21.45;10.77;;;7.00;99.90;;;;;;4920769;29;20028;-93
2023/03/05 04:46:06;;;;;;;19.38;10.20;;;7.00;99.90;;;;;;4920837;29;20028;-92
2023/03/05 04:48:32;;;;;;;21.48;10.88;;;7.00;99.90;;;;;;4920778;29;20038;-92
2023/03/05 04:50:59;;;;;;;31.25;10.43;;;7.10;99.90;;;;;;4920361;29;20048;-91
2023/03/05 04:53:25;;;;;;;17.77;9.77;;;7.10;99.90;;;;;;4920533;29;20032;-90
2023/03/05 04:55:53;;;;;;;18.17;10.77;;;7.10;99.90;;;;;;4920667;29;20035;-91
2023/03/05 04:58:20;;;;;;;17.88;10.07;;;7.20;99.90;;;;;;4920335;29;20036;-90
2023/03/05 05:00:46;;;;;;;19.00;10.38;;;7.20;99.90;;;;;;4920357;29;20445;-93
2023/03/05 05:03:13;;;;;;;22.05;10.38;;;7.10;99.90;;;;;;4920563;29;20028;-92
2023/03/05 05:05:40;;;;;;;19.92;9.75;;;7.20;99.90;;;;;;4920743;29;20031;-90
2023/03/05 05:08:06;;;;;;;19.00;9.85;;;7.10;99.90;;;;;;4907455;29;20053;-90
2023/03/05 05:10:33;;;;;;;22.40;10.23;;;7.10;99.90;;;;;;4927480;29;20027;-91
2023/03/05 05:12:59;;;;;;;15.55;9.38;;;7.10;99.90;;;;;;4939309;29;20042;-91
2023/03/05 05:15:26;;;;;;;18.35;10.38;;;7.10;99.90;;;;;;4939603;29;20035;-90
2023/03/05 05:17:52;;;;;;;15.05;9.38;;;7.10;99.90;;;;;;4939281;29;20054;-91
2023/03/05 05:20:19;;;;;;;18.92;9.02;;;7.10;99.90;;;;;;4939151;29;20079;-93
2023/03/05 05:22:45;;;;;;;20.20;10.05;;;7.10;99.90;;;;;;4939582;29;20035;-92
2023/03/05 05:25:11;;;;;;;31.83;18.27;;;7.10;99.90;;;;;;4937264;29;20512;-92
2023/03/05 05:27:39;;;;;;;39.03;19.75;;;7.10;99.90;;;;;;4939171;29;20031;-91
2023/03/05 05:30:06;;;;;;;41.55;21.88;;;7.20;99.90;;;;;;4939054;29;20031;-92
2023/03/05 05:32:33;;;;;;;36.88;21.05;;;7.20;99.90;;;;;;4939341;29;20031;-92
2023/03/05 05:35:00;;;;;;;37.40;20.75;;;7.20;99.90;;;;;;4939340;29;20039;-91
2023/03/05 05:37:28;;;;;;;27.85;15.80;;;7.20;99.90;;;;;;4955276;29;20078;-90
2023/03/05 05:39:54;;;;;;;24.00;12.60;;;7.20;99.90;;;;;;4938871;29;20548;-92
2023/03/05 05:42:25;;;;;;;23.08;10.00;;;7.30;99.90;;;;;;4939066;28;20028;-93
2023/03/05 05:44:52;;;;;;;16.08;8.90;;;7.30;99.90;;;;;;4958818;29;20038;-90
2023/03/05 05:47:19;;;;;;;17.70;8.70;;;7.30;99.90;;;;;;4942531;29;20095;-92
2023/03/05 05:49:46;;;;;;;13.23;7.90;;;7.40;99.90;;;;;;4942617;29;20039;-89
2023/03/05 05:52:12;;;;;;;14.15;8.10;;;7.40;99.90;;;;;;4942636;29;20111;-92
2023/03/05 05:54:39;;;;;;;13.45;8.02;;;7.40;99.90;;;;;;4942811;29;20085;-91
2023/03/05 05:57:06;;;;;;;14.95;8.55;;;7.40;99.90;;;;;;4942539;29;20028;-91
2023/03/05 05:59:32;;;;;;;16.35;8.07;;;7.50;99.90;;;;;;4942389;29;20030;-91
2023/03/05 06:01:59;;;;;;;15.40;7.97;;;7.50;99.90;;;;;;4942493;29;20031;-92
2023/03/05 06:04:25;;;;;;;13.15;8.20;;;7.50;99.90;;;;;;4942531;29;20027;-92
2023/03/05 06:06:52;;;;;;;11.68;7.43;;;7.70;99.90;;;;;;4942368;29;20038;-91
2023/03/05 06:09:19;;;;;;;8.00;6.20;;;8.00;99.90;;;;;;4942317;29;20038;-91
2023/03/05 06:11:45;;;;;;;9.23;6.30;;;8.50;99.90;;;;;;4937989;29;20114;-92
2023/03/05 06:14:13;;;;;;;9.73;5.65;;;9.00;99.90;;;;;;4942066;29;20157;-93
2023/03/05 06:16:41;;;;;;;11.85;6.43;;;9.80;99.90;;;;;;4942420;29;20039;-92
2023/03/05 06:19:12;;;;;;;6.68;5.97;;;10.40;99.90;;;;;;4942109;29;20041;-93
2023/03/05 06:21:39;;;;;;;7.63;6.32;;;11.00;99.90;;;;;;4942067;29;20039;-92
2023/03/05 06:24:18;;;;;;;8.27;7.47;;;11.60;99.90;;;;;;4942722;29;20055;-94
2023/03/05 06:26:48;;;;;;;8.80;7.93;;;12.00;99.90;;;;;;4942825;29;20031;-93
2023/03/05 06:29:15;;;;;;;11.07;10.27;;;12.30;99.90;;;;;;4947666;29;20055;-92
2023/03/05 06:31:41;;;;;;;13.50;12.40;;;12.70;99.90;;;;;;4951064;29;20055;-90
2023/03/05 06:34:09;;;;;;;16.50;15.40;;;13.00;99.90;;;;;;4942242;29;20386;-94
2023/03/05 06:36:38;;;;;;;17.38;16.17;;;13.70;99.90;;;;;;4941947;29;20023;-93
2023/03/05 06:39:04;;;;;;;18.13;16.75;;;13.60;99.90;;;;;;4957890;29;20028;-93
2023/03/05 06:41:31;;;;;;;19.33;18.05;;;14.40;99.90;;;;;;4941935;29;20032;-93
2023/03/05 06:44:01;;;;;;;19.17;18.08;;;14.40;99.90;;;;;;4922151;29;20148;-92
2023/03/05 06:46:36;;;;;;;19.92;18.58;;;14.50;99.90;;;;;;4922581;29;20064;-93
2023/03/05 06:49:14;;;;;;;17.70;16.60;;;14.60;99.90;;;;;;4922781;29;20043;-92
2023/03/05 06:51:47;;;;;;;16.10;15.07;;;14.70;99.90;;;;;;4927991;29;20028;-92
2023/03/05 06:54:19;;;;;;;15.80;14.80;;;15.00;99.90;;;;;;4909609;29;20048;-94
2023/03/05 06:56:46;;;;;;;15.88;14.88;;;14.90;99.90;;;;;;4927632;29;20027;-93
2023/03/05 06:59:14;;;;;;;15.98;14.98;;;14.80;99.90;;;;;;4908288;29;20032;-94
2023/03/05 07:01:41;;;;;;;16.00;14.90;;;14.70;99.90;;;;;;4907862;29;20102;-92
2023/03/05 07:04:08;;;;;;;15.80;14.60;;;14.40;99.90;;;;;;4908226;29;20032;-93
2023/03/05 07:06:40;;;;;;;15.75;14.80;;;14.30;99.90;;;;;;4922886;29;20039;-91
2023/03/05 07:09:10;;;;;;;17.00;15.80;;;14.60;99.90;;;;;;4925561;29;20072;-92
2023/03/05 07:11:42;;;;;;;16.95;15.80;;;15.10;99.90;;;;;;4906902;29;20036;-93
2023/03/05 07:14:22;;;;;;;;;;;;;;;;;;;;;
2023/03/05 07:17:03;;;;;;;16.73;15.70;;;15.00;99.90;;;;;;4906432;29;20044;-92
2023/03/05 07:19:57;;;;;;;16.00;14.95;;;14.50;99.90;;;;;;4892363;29;20039;-94
2023/03/05 07:22:50;;;;;;;16.40;15.35;;;14.20;99.90;;;;;;4981646;23;20473;-93
2023/03/05 07:25:37;;;;;;;17.17;15.90;;;14.30;99.90;;;;;;4927187;29;20053;-93
2023/03/05 07:28:15;;;;;;;;;;;;;;;;;;;;;
2023/03/05 07:30:42;;;;;;;17.15;15.98;;;14.40;99.90;;;;;;4946393;29;20036;-89
2023/03/05 07:33:11;;;;;;;17.02;15.80;;;14.20;99.90;;;;;;4933526;29;20059;-91
2023/03/05 07:35:51;;;;;;;16.38;14.88;;;13.60;99.90;;;;;;4948871;29;20126;-89
2023/03/05 07:38:25;;;;;;;14.50;13.48;;;12.90;99.90;;;;;;4929907;29;20031;-90
2023/03/05 07:41:22;;;;;;;12.65;11.43;;;12.60;99.90;;;;;;4930428;29;20039;-92
2023/03/05 07:43:54;;;;;;;;;;;12.40;99.90;;;;;;4836107;29;20095;-91
2023/03/05 07:46:25;;;;;;;11.25;10.27;;;12.40;99.90;;;;;;4852438;29;19937;-90
2023/03/05 07:48:54;;;;;;;11.43;10.27;;;12.60;99.90;;;;;;4850200;29;20043;-89
2023/03/05 07:51:24;;;;;;;10.60;9.75;;;12.50;99.90;;;;;;4856661;29;20026;-90
2023/03/05 07:53:52;;;;;;;9.93;9.23;;;12.40;99.90;;;;;;4851476;29;20033;-91
2023/03/05 07:56:24;;;;;;;9.70;8.88;;;12.40;99.90;;;;;;5020161;23;20051;-92
2023/03/05 07:58:53;;;;;;;11.45;10.60;;;13.00;99.90;;;;;;4927724;29;20031;-92
2023/03/05 08:01:20;;;;;;;12.57;11.68;;;13.50;99.90;;;;;;4905742;29;20032;-91
2023/03/05 08:03:46;;;;;;;13.48;12.32;;;13.60;99.90;;;;;;4939984;29;20050;-90
2023/03/05 08:06:13;;;;;;;12.02;11.07;;;13.40;99.90;;;;;;4934217;29;20035;-90
2023/03/05 08:08:39;;;;;;;12.05;11.00;;;13.00;99.90;;;;;;4906413;29;20062;-90
2023/03/05 08:11:12;;;;;;;11.68;10.75;;;12.80;99.90;;;;;;4921261;29;20039;-89
2023/03/05 08:13:39;;;;;;;11.65;10.75;;;13.00;99.90;;;;;;4921123;29;20031;-89
2023/03/05 08:16:08;;;;;;;11.45;10.65;;;13.30;99.90;;;;;;4907129;29;20050;-86
2023/03/05 08:18:35;;;;;;;12.82;11.90;;;13.60;99.90;;;;;;4923487;29;20095;-90
2023/03/05 08:21:40;;;;;;;12.25;11.40;;;13.70;99.90;;;;;;4888001;29;20052;-94
2023/03/05 08:24:08;;;;;;;11.98;11.07;;;13.50;99.90;;;;;;4828322;29;20121;-89
2023/03/05 08:26:40;;;;;;;10.57;9.93;;;13.50;99.90;;;;;;4843095;29;20050;-89
2023/03/05 08:29:08;;;;;;;9.40;8.80;;;13.40;99.90;;;;;;4842865;29;20038;-89
2023/03/05 08:31:35;;;;;;;8.90;8.40;;;13.30;99.90;;;;;;4843072;29;20038;-91
2023/03/05 08:34:03;;;;;;;9.23;8.52;;;13.30;99.90;;;;;;4827189;29;20117;-92
2023/03/05 08:36:30;;;;;;;8.57;7.93;;;13.20;99.90;;;;;;4827225;29;20033;-92
2023/03/05 08:38:59;;;;;;;7.70;7.30;;;12.90;99.90;;;;;;4842702;29;20038;-88
2023/03/05 08:41:25;;;;;;;7.35;6.85;;;12.60;99.90;;;;;;4844072;29;20176;-88
2023/03/05 08:43:52;;;;;;;8.18;7.57;;;12.60;99.90;;;;;;4859858;29;20029;-87
2023/03/05 08:46:18;;;;;;;9.60;8.32;;;12.70;99.90;;;;;;4873558;29;20057;-87
2023/03/05 08:48:44;;;;;;;7.82;7.30;;;12.70;99.90;;;;;;4875048;29;20038;-87
2023/03/05 08:51:14;;;;;;;6.63;6.25;;;12.60;99.90;;;;;;4860685;29;20025;-88
2023/03/05 08:53:42;;;;;;;7.18;6.50;;;12.60;99.90;;;;;;4858737;29;20046;-87
2023/03/05 08:56:41;;;;;;;7.18;6.72;;;12.70;99.90;;;;;;4860622;29;20072;-92
2023/03/05 09:05:18;;;;;;;8.80;8.10;;;13.40;99.90;;;;;;5059193;23;20062;-88
2023/03/05 09:07:46;;;;;;;7.95;7.55;;;12.90;99.90;;;;;;5148607;23;20051;-85
2023/03/05 09:10:21;;;;;;;7.18;6.55;;;12.30;99.90;;;;;;4990023;23;20062;-87
2023/03/05 09:12:56;;;;;;;8.20;7.50;;;12.00;99.90;;;;;;4944915;28;20539;-77
2023/03/05 09:15:31;;;;;;;7.25;6.50;;;12.00;99.90;;;;;;4959008;29;20074;-92
2023/03/05 09:18:00;;;;;;;7.90;7.10;;;11.90;99.90;;;;;;4945592;29;20110;-90
2023/03/05 09:20:26;;;;;;;8.27;7.47;;;12.00;99.90;;;;;;4925632;29;20078;-88
2023/03/05 09:22:53;;;;;;;7.43;6.28;;;12.00;99.90;;;;;;4923853;29;20110;-90
2023/03/05 09:25:19;;;;;;;6.32;5.82;;;12.00;99.90;;;;;;4939718;29;20083;-87
2023/03/05 09:27:45;;;;;;;7.05;6.40;;;12.10;99.90;;;;;;4923928;29;20020;-88
2023/03/05 09:30:13;;;;;;;7.20;6.70;;;12.00;99.90;;;;;;4943904;29;20106;-83
2023/03/05 09:32:39;;;;;;;8.35;6.60;;;12.00;99.90;;;;;;4925604;29;20030;-82
2023/03/05 09:35:06;;;;;;;7.38;6.82;;;12.00;99.90;;;;;;4937896;29;20039;-78
2023/03/05 09:37:33;;;;;;;7.53;7.00;;;12.10;99.90;;;;;;4963945;28;20031;-79
2023/03/05 09:39:59;;;;;;;7.70;7.10;;;12.20;99.90;;;;;;4974906;28;20023;-77
2023/03/05 09:42:40;;;;;;;7.88;7.28;;;12.30;99.90;;;;;;4973510;28;20552;-76
2023/03/05 09:45:26;;;;;;;7.70;7.20;;;12.40;99.90;;;;;;4974533;28;20054;-74
2023/03/05 09:48:12;;;;;;;7.80;7.20;;;12.70;99.90;;;;;;4945844;29;20496;-77
2023/03/05 09:50:43;;;;;;;8.20;7.70;;;12.80;99.90;;;;;;4955543;29;20033;-80
2023/03/05 09:53:49;;;;;;;8.25;7.43;;;12.90;99.90;;;;;;4941014;29;20031;-83
2023/03/05 09:56:22;;;;;;;7.43;7.10;;;12.70;99.90;;;;;;4922113;29;20039;-83
2023/03/05 09:58:53;;;;;;;8.23;7.72;;;12.80;99.90;;;;;;4940708;28;20031;-87
2023/03/05 10:01:28;;;;;;;8.57;7.78;;;12.70;99.90;;;;;;4957177;28;20501;-77
2023/03/05 10:04:05;;;;;;;9.82;9.13;;;12.70;99.90;;;;;;4969115;28;20054;-76
2023/03/05 10:06:49;;;;;;;8.65;8.05;;;12.80;99.90;;;;;;4955085;29;20385;-79
2023/03/05 10:09:34;;;;;;;8.30;7.90;;;12.70;99.90;;;;;;4921952;29;20393;-79
2023/03/05 10:12:33;;;;;;;8.18;7.68;;;12.70;99.90;;;;;;4955089;29;20036;-79
2023/03/05 10:15:02;;;;;;;8.50;7.93;;;13.00;99.90;;;;;;4962271;28;20135;-87
2023/03/05 10:17:50;;;;;;;9.40;8.88;;;13.30;99.90;;;;;;4975891;28;20058;-95
2023/03/05 10:20:23;;;;;;;10.90;10.15;;;13.40;99.90;;;;;;4947871;28;20035;-94
2023/03/05 10:23:28;;;;;;;11.23;10.38;;;13.60;99.90;;;;;;4922595;29;20043;-94
2023/03/05 10:26:07;;;;;;;11.82;11.20;;;13.90;99.90;;;;;;4905732;29;20557;-94
2023/03/05 10:28:42;;;;;;;23.50;19.48;;;14.30;99.90;;;;;;4909806;29;20104;-92
2023/03/05 10:31:42;;;;;;;16.00;14.60;;;14.70;99.90;;;;;;4922031;29;20108;-93
2023/03/05 10:34:31;;;;;;;15.30;14.20;;;15.00;99.90;;;;;;4919002;29;20047;-92
2023/03/05 10:37:13;;;;;;;14.80;13.82;;;14.70;99.90;;;;;;4900587;29;20040;-93
2023/03/05 10:40:00;;;;;;;11.85;11.15;;;14.40;99.90;;;;;;4889153;29;20036;-93
2023/03/05 10:42:42;;;;;;;11.05;10.35;;;14.10;99.90;;;;;;4891968;29;20423;-93
2023/03/05 10:45:20;;;;;;;10.68;9.98;;;13.30;99.90;;;;;;4895032;29;20044;-92
2023/03/05 10:47:51;;;;;;;8.55;8.07;;;13.00;99.90;;;;;;4891059;29;20050;-94
2023/03/05 10:50:24;;;;;;;10.93;10.02;;;13.00;99.90;;;;;;4890062;29;20406;-86
2023/03/05 11:06:35;;;;;;;12.40;11.60;;;13.50;99.90;;;;;;5040398;23;20077;-93
2023/03/05 12:21:37;;;;;;;6.88;6.25;;;12.10;99.90;;;;;;5057338;23;20087;-88
2023/03/05 12:24:23;;;;;;;6.72;5.80;;;12.00;99.90;;;;;;4960802;28;20074;-88
2023/03/05 12:26:58;;;;;;;8.00;6.47;;;11.90;99.90;;;;;;4949662;29;20047;-90
2023/03/05 12:29:44;;;;;;;7.85;7.00;;;11.70;99.90;;;;;;4926286;29;20129;-90
2023/03/05 12:34:56;;;;;;;7.43;6.73;;;11.90;99.90;;;;;;4938718;29;20051;-87
2023/03/05 12:37:22;;;;;;;8.57;7.20;;;12.00;99.90;;;;;;4906468;29;20074;-89
2023/03/05 12:39:56;;;;;;;8.63;7.82;;;12.20;99.90;;;;;;4923138;29;20031;-87
2023/03/05 12:42:42;;;;;;;10.23;7.75;;;12.20;99.90;;;;;;4906955;29;20028;-89
2023/03/05 12:45:08;;;;;;;7.97;7.20;;;12.30;99.90;;;;;;4922462;29;20383;-89
2023/03/05 12:47:35;;;;;;;8.45;7.60;;;12.50;99.90;;;;;;5293204;23;20051;-85
2023/03/05 12:50:03;;;;;;;9.30;8.40;;;12.60;99.90;;;;;;4980548;28;20030;-88
2023/03/05 14:11:37;;;;;;;;;;;;;;;;;;;;;
2023/03/05 15:48:23;;;;;;;21.95;20.00;;;12.50;99.90;;;;;;5397219;23;20076;-85
2023/03/05 15:50:49;;;;;;;20.77;19.27;;;12.40;99.90;;;;;;4977940;28;20065;-82
2023/03/05 15:53:20;;;;;;;20.20;18.80;;;12.30;99.90;;;;;;4961665;28;20073;-88
2023/03/05 15:55:50;;;;;;;20.58;19.17;;;12.20;99.90;;;;;;4946091;28;20089;-81
2023/03/05 15:58:17;;;;;;;20.38;18.88;;;12.10;99.90;;;;;;4945477;28;20034;-85
2023/03/05 16:00:46;;;;;;;21.40;19.83;;;12.00;99.90;;;;;;4961350;28;20026;-82
2023/03/05 16:03:12;;;;;;;21.13;19.52;;;11.90;99.90;;;;;;4942238;29;20031;-81
2023/03/05 16:05:39;;;;;;;21.20;19.50;;;11.90;99.90;;;;;;4941176;29;20100;-79
2023/03/05 16:08:06;;;;;;;21.38;19.77;;;11.90;99.90;;;;;;4941383;29;20042;-82
2023/03/05 16:10:34;;;;;;;22.15;20.30;;;11.80;99.90;;;;;;4939748;29;20042;-88
2023/03/05 16:13:05;;;;;;;21.17;19.58;;;11.80;99.90;;;;;;4941793;28;20073;-85
2023/03/05 16:15:33;;;;;;;21.23;19.40;;;11.80;99.90;;;;;;4958674;28;20043;-77
2023/03/05 16:30:15;;;;;;;20.77;18.98;;;11.40;99.90;;;;;;5630512;23;20051;-92
2023/03/05 16:32:49;;;;;;;20.50;18.77;;;11.30;99.90;;;;;;4965624;28;20027;-93
2023/03/05 16:35:39;;;;;;;22.98;20.83;;;11.30;99.90;;;;;;4971030;28;20043;-93
2023/03/05 16:38:24;;;;;;;22.33;19.45;;;11.30;99.90;;;;;;4979273;28;20067;-94
2023/03/05 16:40:53;;;;;;;21.08;19.15;;;11.10;99.90;;;;;;4948929;28;20035;-93
2023/03/05 16:43:23;;;;;;;20.65;18.50;;;11.10;99.90;;;;;;4950248;28;20038;-93
2023/03/05 16:49:20;;;;;;;;;;;;;;;;;;;;;
2023/03/05 16:57:33;;;;;;;28.30;20.17;;;10.40;99.90;;;;;;5006739;28;20041;-94
2023/03/05 17:03:52;;;;;;;;;;;;;;;;;;;;;
2023/03/05 17:06:38;;;;;;;23.00;18.58;;;9.80;99.90;;;;;;5124383;28;20032;-93
2023/03/05 17:09:05;;;;;;;29.88;19.75;;;9.70;99.90;;;;;;5105305;28;20024;-94
2023/03/05 17:11:32;;;;;;;24.13;17.52;;;9.60;99.90;;;;;;5105987;28;20035;-94
2023/03/05 17:13:58;;;;;;;24.20;19.02;;;9.50;99.90;;;;;;5125856;28;20030;-93
2023/03/05 17:16:25;;;;;;;27.60;18.95;;;9.50;99.90;;;;;;5108374;28;20043;-93
2023/03/05 17:18:52;;;;;;;26.75;19.23;;;9.50;99.90;;;;;;5122623;28;20027;-94
2023/03/05 17:21:21;;;;;;;26.63;18.63;;;9.40;99.90;;;;;;5398341;22;20041;-94
2023/03/05 17:23:48;;;;;;;27.08;19.50;;;9.40;99.90;;;;;;5062944;28;20127;-94
2023/03/05 17:26:18;;;;;;;30.38;20.65;;;9.30;99.90;;;;;;5063474;28;20035;-93
2023/03/05 17:28:45;;;;;;;26.25;19.35;;;9.20;99.90;;;;;;5062247;28;20056;-93
2023/03/05 17:31:13;;;;;;;28.67;20.70;;;9.10;99.90;;;;;;5074163;28;20052;-93
2023/03/05 17:33:43;;;;;;;33.95;20.27;;;9.00;99.90;;;;;;5069593;28;20032;-94
2023/03/05 17:36:15;;;;;;;38.13;23.63;;;9.00;99.90;;;;;;5086966;28;20474;-93
2023/03/05 17:38:42;;;;;;;35.40;24.20;;;8.90;99.90;;;;;;5069598;28;20032;-92
2023/03/05 17:41:09;;;;;;;48.95;28.17;;;8.80;99.90;;;;;;5069463;28;20074;-92
2023/03/05 17:43:36;;;;;;;34.88;21.70;;;8.70;99.90;;;;;;5071489;28;20033;-92
2023/03/05 17:46:06;;;;;;;26.95;19.33;;;8.60;99.90;;;;;;5076866;28;20508;-93
2023/03/05 17:48:33;;;;;;;35.03;20.30;;;8.60;99.90;;;;;;5070820;28;20055;-94
2023/03/05 17:51:07;;;;;;;29.90;19.25;;;8.50;99.90;;;;;;5084733;28;20025;-94
2023/03/05 17:53:34;;;;;;;;;;;8.40;99.90;;;;;;5090752;28;20028;-93